QTR529 VOMM-OTHH
Flight info
| Callsign | QTR529 |
|---|---|
| Flight time | 4h 19m |
| Altitude | 40000 |
| Route | GULAM2B GULAM P574 BISET P751 LEGEN N563 REXOD L883 SITOL DCT 21N053E DCT 23N051E |
| Aircraft | B789/H-SDE1E2E3FGHIJ2J3J4J5M1RWXY/LB1D1 |
Departure
| Time | 2026-05-06 23:45 |
|---|---|
| Airport | Chennai International Airport (VOMM) |
Arrival
| Time | 2026-05-07 04:05 |
|---|---|
| Airport | Hamad International Airport (OTHH) |
| Time | Latitude | Longitude | Altitude | Speed | Heading |
|---|---|---|---|---|---|
| 2026-05-06 23:23 | 12.98407 | 80.16439 | 61 ft | 0 kts | 158° |
| 2026-05-06 23:35 | 12.98422 | 80.16432 | 52 ft | 2 kts | 159° |
| 2026-05-06 23:35 | 12.98438 | 80.16427 | 55 ft | 3 kts | 180° |
| 2026-05-06 23:35 | 12.98453 | 80.16434 | 52 ft | 2 kts | 226° |
| 2026-05-06 23:36 | 12.98464 | 80.16446 | 52 ft | 2 kts | 229° |
| 2026-05-06 23:36 | 12.98475 | 80.16459 | 52 ft | 2 kts | 236° |
| 2026-05-06 23:36 | 12.98483 | 80.16474 | 52 ft | 2 kts | 244° |
| 2026-05-06 23:36 | 12.98489 | 80.16490 | 52 ft | 2 kts | 248° |
| 2026-05-06 23:37 | 12.98494 | 80.16502 | 52 ft | 1 kts | 249° |
| 2026-05-06 23:37 | 12.98495 | 80.16505 | 52 ft | 0 kts | 249° |
| 2026-05-06 23:39 | 12.98493 | 80.16500 | 61 ft | 2 kts | 250° |
| 2026-05-06 23:39 | 12.98487 | 80.16480 | 53 ft | 4 kts | 251° |
| 2026-05-06 23:40 | 12.98476 | 80.16446 | 59 ft | 6 kts | 253° |
| 2026-05-06 23:40 | 12.98459 | 80.16399 | 56 ft | 8 kts | 248° |
| 2026-05-06 23:40 | 12.98437 | 80.16344 | 57 ft | 9 kts | 248° |
| 2026-05-06 23:40 | 12.98415 | 80.16285 | 54 ft | 9 kts | 250° |
| 2026-05-06 23:41 | 12.98394 | 80.16224 | 55 ft | 9 kts | 250° |
| 2026-05-06 23:41 | 12.98404 | 80.16170 | 52 ft | 7 kts | 317° |
| 2026-05-06 23:41 | 12.98448 | 80.16150 | 53 ft | 7 kts | 342° |
| 2026-05-06 23:41 | 12.98499 | 80.16131 | 56 ft | 8 kts | 330° |
| 2026-05-06 23:42 | 12.98512 | 80.16092 | 56 ft | 5 kts | 258° |
| 2026-05-06 23:42 | 12.98500 | 80.16054 | 52 ft | 6 kts | 249° |
| 2026-05-06 23:42 | 12.98484 | 80.16011 | 55 ft | 7 kts | 249° |
| 2026-05-06 23:42 | 12.98466 | 80.15963 | 53 ft | 8 kts | 249° |
| 2026-05-06 23:43 | 12.98442 | 80.15899 | 54 ft | 11 kts | 249° |
| 2026-05-06 23:43 | 12.98412 | 80.15824 | 53 ft | 12 kts | 246° |
| 2026-05-06 23:43 | 12.98377 | 80.15741 | 57 ft | 14 kts | 246° |
| 2026-05-06 23:43 | 12.98362 | 80.15646 | 58 ft | 14 kts | 282° |
| 2026-05-06 23:44 | 12.98391 | 80.15544 | 55 ft | 16 kts | 285° |
| 2026-05-06 23:44 | 12.98437 | 80.15445 | 55 ft | 12 kts | 328° |
| 2026-05-06 23:44 | 12.98481 | 80.15473 | 55 ft | 8 kts | 68° |
| 2026-05-06 23:44 | 12.98513 | 80.15557 | 57 ft | 23 kts | 69° |
| 2026-05-06 23:45 | 12.98639 | 80.15895 | 54 ft | 80 kts | 69° |
| 2026-05-06 23:45 | 12.98909 | 80.16616 | 55 ft | 135 kts | 69° |
| 2026-05-06 23:45 | 12.99307 | 80.17667 | 101 ft | 177 kts | 69° |
| 2026-05-06 23:45 | 12.99778 | 80.18886 | 661 ft | 190 kts | 71° |
| 2026-05-06 23:46 | 13.00241 | 80.20253 | 1086 ft | 218 kts | 67° |
| 2026-05-06 23:46 | 13.01402 | 80.21369 | 1473 ft | 248 kts | 22° |
| 2026-05-06 23:46 | 13.03155 | 80.21496 | 1860 ft | 258 kts | 346° |
| 2026-05-06 23:46 | 13.04780 | 80.20829 | 2273 ft | 249 kts | 334° |
| 2026-05-06 23:47 | 13.06368 | 80.20126 | 2747 ft | 249 kts | 339° |
| 2026-05-06 23:47 | 13.08020 | 80.19555 | 3252 ft | 252 kts | 343° |
| 2026-05-06 23:47 | 13.09663 | 80.19010 | 3738 ft | 253 kts | 336° |
| 2026-05-06 23:47 | 13.11013 | 80.17789 | 4203 ft | 259 kts | 307° |
| 2026-05-06 23:48 | 13.12059 | 80.16276 | 4679 ft | 261 kts | 304° |
| 2026-05-06 23:48 | 13.13060 | 80.14696 | 4854 ft | 266 kts | 303° |
| 2026-05-06 23:48 | 13.14084 | 80.13110 | 5117 ft | 266 kts | 304° |
| 2026-05-06 23:48 | 13.15141 | 80.11518 | 5173 ft | 275 kts | 305° |
| 2026-05-06 23:49 | 13.16243 | 80.09857 | 5170 ft | 286 kts | 304° |
| 2026-05-06 23:49 | 13.17278 | 80.08109 | 5361 ft | 287 kts | 290° |
| 2026-05-06 23:49 | 13.17543 | 80.06094 | 5555 ft | 287 kts | 263° |
| 2026-05-06 23:49 | 13.16974 | 80.04169 | 5711 ft | 287 kts | 247° |
| 2026-05-06 23:50 | 13.16239 | 80.02254 | 5906 ft | 288 kts | 247° |
| 2026-05-06 23:50 | 13.14960 | 79.99020 | 5995 ft | 293 kts | 247° |
| 2026-05-06 23:50 | 13.14232 | 79.97169 | 6623 ft | 277 kts | 247° |
| 2026-05-06 23:51 | 13.13486 | 79.95265 | 7424 ft | 290 kts | 247° |
| 2026-05-06 23:51 | 13.12728 | 79.93341 | 8205 ft | 296 kts | 248° |
| 2026-05-06 23:51 | 13.11946 | 79.91353 | 9000 ft | 305 kts | 248° |
| 2026-05-06 23:51 | 13.11149 | 79.89327 | 9781 ft | 308 kts | 248° |
| 2026-05-06 23:52 | 13.10336 | 79.87260 | 10494 ft | 311 kts | 248° |
| 2026-05-06 23:52 | 13.09533 | 79.85220 | 11221 ft | 312 kts | 249° |
| 2026-05-06 23:52 | 13.08716 | 79.83146 | 11959 ft | 316 kts | 249° |
| 2026-05-06 23:52 | 13.07952 | 79.80981 | 12539 ft | 333 kts | 261° |
| 2026-05-06 23:53 | 13.07990 | 79.78569 | 13127 ft | 347 kts | 283° |
| 2026-05-06 23:53 | 13.08559 | 79.76092 | 13671 ft | 365 kts | 286° |
| 2026-05-06 23:53 | 13.09245 | 79.73519 | 14156 ft | 382 kts | 286° |
| 2026-05-06 23:53 | 13.09942 | 79.70827 | 14641 ft | 398 kts | 285° |
| 2026-05-06 23:54 | 13.10617 | 79.68026 | 15134 ft | 411 kts | 284° |
| 2026-05-06 23:54 | 13.11314 | 79.65142 | 15631 ft | 422 kts | 284° |
| 2026-05-06 23:54 | 13.12053 | 79.62187 | 16134 ft | 431 kts | 284° |
| 2026-05-06 23:54 | 13.12805 | 79.59182 | 16640 ft | 436 kts | 284° |
| 2026-05-06 23:55 | 13.13546 | 79.56178 | 17148 ft | 439 kts | 284° |
| 2026-05-06 23:55 | 13.14306 | 79.53085 | 17667 ft | 442 kts | 284° |
| 2026-05-06 23:55 | 13.15054 | 79.50058 | 18173 ft | 444 kts | 283° |
| 2026-05-06 23:55 | 13.15818 | 79.46973 | 18616 ft | 448 kts | 283° |
| 2026-05-06 23:56 | 13.16590 | 79.43847 | 19072 ft | 452 kts | 283° |
| 2026-05-06 23:56 | 13.17363 | 79.40707 | 19531 ft | 455 kts | 283° |
| 2026-05-06 23:56 | 13.18143 | 79.37544 | 19993 ft | 458 kts | 284° |
| 2026-05-06 23:56 | 13.18938 | 79.34317 | 20468 ft | 461 kts | 284° |
| 2026-05-06 23:57 | 13.19727 | 79.31122 | 20947 ft | 463 kts | 284° |
| 2026-05-06 23:57 | 13.20513 | 79.27953 | 21427 ft | 465 kts | 284° |
| 2026-05-06 23:57 | 13.21323 | 79.24686 | 21913 ft | 467 kts | 284° |
| 2026-05-06 23:57 | 13.22112 | 79.21490 | 22415 ft | 469 kts | 284° |
| 2026-05-06 23:58 | 13.22914 | 79.18239 | 22914 ft | 470 kts | 284° |
| 2026-05-06 23:58 | 13.23720 | 79.14978 | 23428 ft | 471 kts | 284° |
| 2026-05-06 23:58 | 13.24527 | 79.11708 | 23864 ft | 472 kts | 284° |
| 2026-05-06 23:58 | 13.25333 | 79.08444 | 24294 ft | 473 kts | 284° |
| 2026-05-06 23:59 | 13.26143 | 79.05157 | 24729 ft | 474 kts | 284° |
| 2026-05-06 23:59 | 13.26951 | 79.01875 | 25139 ft | 476 kts | 284° |
| 2026-05-06 23:59 | 13.27765 | 78.98570 | 25474 ft | 479 kts | 284° |
| 2026-05-06 23:59 | 13.28588 | 78.95229 | 25816 ft | 482 kts | 284° |
| 2026-05-07 00:00 | 13.29585 | 78.91988 | 26173 ft | 483 kts | 294° |
| 2026-05-07 00:00 | 13.31199 | 78.88961 | 26576 ft | 484 kts | 302° |
| 2026-05-07 00:00 | 13.33022 | 78.86052 | 26932 ft | 486 kts | 302° |
| 2026-05-07 00:00 | 13.34867 | 78.83125 | 27299 ft | 488 kts | 302° |
| 2026-05-07 00:01 | 13.36711 | 78.80194 | 27671 ft | 489 kts | 302° |
| 2026-05-07 00:01 | 13.38556 | 78.77245 | 28042 ft | 491 kts | 302° |
| 2026-05-07 00:01 | 13.40409 | 78.74282 | 28293 ft | 495 kts | 302° |
| 2026-05-07 00:01 | 13.42282 | 78.71297 | 28543 ft | 498 kts | 302° |
| 2026-05-07 00:02 | 13.44162 | 78.68300 | 28803 ft | 501 kts | 302° |
| 2026-05-07 00:02 | 13.46058 | 78.65270 | 29075 ft | 504 kts | 302° |
| 2026-05-07 00:02 | 13.47960 | 78.62228 | 29322 ft | 507 kts | 302° |
| 2026-05-07 00:02 | 13.49854 | 78.59203 | 29578 ft | 509 kts | 302° |
| 2026-05-07 00:03 | 13.51773 | 78.56137 | 29842 ft | 510 kts | 302° |
| 2026-05-07 00:03 | 13.53696 | 78.53062 | 30093 ft | 512 kts | 302° |
| 2026-05-07 00:03 | 13.55629 | 78.49967 | 30318 ft | 513 kts | 302° |
| 2026-05-07 00:03 | 13.57562 | 78.46874 | 30546 ft | 514 kts | 302° |
| 2026-05-07 00:04 | 13.59475 | 78.43812 | 30779 ft | 515 kts | 302° |
| 2026-05-07 00:04 | 13.61410 | 78.40713 | 31005 ft | 515 kts | 302° |
| 2026-05-07 00:04 | 13.63343 | 78.37614 | 31238 ft | 515 kts | 302° |
| 2026-05-07 00:04 | 13.65279 | 78.34512 | 31461 ft | 514 kts | 302° |
| 2026-05-07 00:05 | 13.67214 | 78.31410 | 31697 ft | 514 kts | 302° |
| 2026-05-07 00:05 | 13.69141 | 78.28320 | 31926 ft | 513 kts | 302° |
| 2026-05-07 00:05 | 13.71070 | 78.25224 | 32164 ft | 513 kts | 302° |
| 2026-05-07 00:05 | 13.72993 | 78.22138 | 32400 ft | 513 kts | 302° |
| 2026-05-07 00:06 | 13.74917 | 78.19047 | 32641 ft | 512 kts | 302° |
| 2026-05-07 00:06 | 13.76839 | 78.15961 | 32883 ft | 512 kts | 302° |
| 2026-05-07 00:06 | 13.78756 | 78.12882 | 33132 ft | 512 kts | 302° |
| 2026-05-07 00:06 | 13.80675 | 78.09795 | 33372 ft | 511 kts | 302° |
| 2026-05-07 00:07 | 13.82596 | 78.06707 | 33611 ft | 511 kts | 302° |
| 2026-05-07 00:07 | 13.84510 | 78.03628 | 33864 ft | 510 kts | 301° |
| 2026-05-07 00:07 | 13.86426 | 78.00546 | 34089 ft | 510 kts | 301° |
| 2026-05-07 00:07 | 13.88331 | 77.97478 | 34302 ft | 510 kts | 301° |
| 2026-05-07 00:08 | 13.90239 | 77.94405 | 34531 ft | 508 kts | 301° |
| 2026-05-07 00:08 | 13.92141 | 77.91342 | 34759 ft | 508 kts | 301° |
| 2026-05-07 00:08 | 13.94044 | 77.88277 | 34960 ft | 507 kts | 301° |
| 2026-05-07 00:08 | 13.95946 | 77.85209 | 35190 ft | 507 kts | 302° |
| 2026-05-07 00:09 | 13.97877 | 77.82175 | 35426 ft | 506 kts | 303° |
| 2026-05-07 00:09 | 13.99850 | 77.79173 | 35651 ft | 506 kts | 303° |
| 2026-05-07 00:09 | 14.01804 | 77.76162 | 35884 ft | 506 kts | 302° |
| 2026-05-07 00:09 | 14.03730 | 77.73131 | 36117 ft | 505 kts | 302° |
| 2026-05-07 00:10 | 14.05659 | 77.70108 | 36350 ft | 504 kts | 302° |
| 2026-05-07 00:10 | 14.07596 | 77.67108 | 36584 ft | 503 kts | 302° |
| 2026-05-07 00:10 | 14.09514 | 77.64136 | 36829 ft | 503 kts | 302° |
| 2026-05-07 00:10 | 14.11440 | 77.61128 | 37067 ft | 503 kts | 302° |
| 2026-05-07 00:11 | 14.13365 | 77.58118 | 37300 ft | 502 kts | 302° |
| 2026-05-07 00:11 | 14.15289 | 77.55120 | 37561 ft | 501 kts | 302° |
| 2026-05-07 00:11 | 14.17216 | 77.52121 | 37818 ft | 501 kts | 302° |
| 2026-05-07 00:11 | 14.19138 | 77.49122 | 38068 ft | 501 kts | 302° |
| 2026-05-07 00:12 | 14.21055 | 77.46126 | 38324 ft | 500 kts | 302° |
| 2026-05-07 00:12 | 14.22973 | 77.43130 | 38583 ft | 499 kts | 302° |
| 2026-05-07 00:12 | 14.24884 | 77.40147 | 38728 ft | 500 kts | 302° |
| 2026-05-07 00:12 | 14.26809 | 77.37138 | 38793 ft | 501 kts | 301° |
| 2026-05-07 00:13 | 14.28719 | 77.34154 | 38905 ft | 498 kts | 301° |
| 2026-05-07 00:13 | 14.30624 | 77.31176 | 39048 ft | 496 kts | 301° |
| 2026-05-07 00:13 | 14.32519 | 77.28209 | 39227 ft | 495 kts | 301° |
| 2026-05-07 00:13 | 14.34413 | 77.25246 | 39425 ft | 495 kts | 301° |
| 2026-05-07 00:14 | 14.36305 | 77.22285 | 39620 ft | 495 kts | 301° |
| 2026-05-07 00:14 | 14.38194 | 77.19327 | 39834 ft | 495 kts | 301° |
| 2026-05-07 00:14 | 14.41999 | 77.13363 | 39872 ft | 498 kts | 301° |
| 2026-05-07 00:15 | 14.45788 | 77.07424 | 39877 ft | 494 kts | 301° |
| 2026-05-07 00:15 | 14.49559 | 77.01504 | 39880 ft | 493 kts | 301° |
| 2026-05-07 00:16 | 14.53330 | 76.95584 | 39883 ft | 494 kts | 301° |
| 2026-05-07 00:16 | 14.57115 | 76.89635 | 39883 ft | 495 kts | 301° |
| 2026-05-07 00:17 | 14.60895 | 76.83691 | 39876 ft | 495 kts | 301° |
| 2026-05-07 00:17 | 14.64667 | 76.77754 | 39864 ft | 495 kts | 301° |
| 2026-05-07 00:18 | 14.68442 | 76.71809 | 39859 ft | 494 kts | 301° |
| 2026-05-07 00:18 | 14.72207 | 76.65875 | 39861 ft | 493 kts | 301° |
| 2026-05-07 00:19 | 14.75959 | 76.59955 | 39862 ft | 493 kts | 301° |
| 2026-05-07 00:19 | 14.79724 | 76.54014 | 39867 ft | 494 kts | 301° |
| 2026-05-07 00:20 | 14.83490 | 76.48063 | 39863 ft | 495 kts | 301° |
| 2026-05-07 00:20 | 14.87260 | 76.42104 | 39864 ft | 495 kts | 301° |
| 2026-05-07 00:21 | 14.91024 | 76.36149 | 39858 ft | 495 kts | 301° |
| 2026-05-07 00:21 | 14.94790 | 76.30186 | 39851 ft | 495 kts | 301° |
| 2026-05-07 00:22 | 14.98561 | 76.24211 | 39855 ft | 496 kts | 301° |
| 2026-05-07 00:22 | 15.02324 | 76.18243 | 39851 ft | 495 kts | 301° |
| 2026-05-07 00:23 | 15.06060 | 76.12314 | 39853 ft | 494 kts | 301° |
| 2026-05-07 00:23 | 15.09816 | 76.06349 | 39845 ft | 495 kts | 301° |
| 2026-05-07 00:24 | 15.13578 | 76.00370 | 39851 ft | 495 kts | 300° |
| 2026-05-07 00:24 | 15.16890 | 75.94147 | 39895 ft | 492 kts | 297° |
| 2026-05-07 00:25 | 15.20169 | 75.87919 | 39834 ft | 493 kts | 297° |
| 2026-05-07 00:25 | 15.22880 | 75.82738 | 39863 ft | 491 kts | 297° |
| 2026-05-07 00:26 | 15.26696 | 75.75465 | 39836 ft | 491 kts | 297° |
| 2026-05-07 00:26 | 15.29398 | 75.70301 | 39839 ft | 491 kts | 297° |
| 2026-05-07 00:27 | 15.33192 | 75.63055 | 39850 ft | 492 kts | 297° |
| 2026-05-07 00:27 | 15.35917 | 75.57840 | 39850 ft | 491 kts | 297° |
| 2026-05-07 00:28 | 15.39173 | 75.51609 | 39844 ft | 491 kts | 297° |
| 2026-05-07 00:28 | 15.42407 | 75.45412 | 39882 ft | 491 kts | 297° |
| 2026-05-07 00:29 | 15.45652 | 75.39188 | 39827 ft | 491 kts | 297° |
| 2026-05-07 00:30 | 15.52135 | 75.26741 | 39870 ft | 490 kts | 297° |
| 2026-05-07 00:30 | 15.55366 | 75.20532 | 39868 ft | 489 kts | 297° |
| 2026-05-07 00:31 | 15.58592 | 75.14324 | 39873 ft | 488 kts | 297° |
| 2026-05-07 00:31 | 15.61814 | 75.08120 | 39867 ft | 488 kts | 297° |
| 2026-05-07 00:32 | 15.65035 | 75.01911 | 39853 ft | 488 kts | 297° |
| 2026-05-07 00:32 | 15.68233 | 74.95746 | 39867 ft | 487 kts | 297° |
| 2026-05-07 00:33 | 15.71440 | 74.89552 | 39871 ft | 488 kts | 297° |
| 2026-05-07 00:33 | 15.74653 | 74.83342 | 39811 ft | 488 kts | 297° |
| 2026-05-07 00:34 | 15.77853 | 74.77156 | 39868 ft | 485 kts | 297° |
| 2026-05-07 00:34 | 15.81046 | 74.70973 | 39882 ft | 486 kts | 297° |
| 2026-05-07 00:35 | 15.84242 | 74.64783 | 39872 ft | 486 kts | 297° |
| 2026-05-07 00:35 | 15.87316 | 74.58545 | 39873 ft | 485 kts | 296° |
| 2026-05-07 00:36 | 15.90412 | 74.52300 | 39868 ft | 485 kts | 296° |
| 2026-05-07 00:36 | 15.93416 | 74.46035 | 39871 ft | 484 kts | 296° |
| 2026-05-07 00:37 | 15.96437 | 74.39832 | 39865 ft | 484 kts | 296° |
| 2026-05-07 00:37 | 15.99463 | 74.33568 | 39867 ft | 485 kts | 296° |
| 2026-05-07 00:38 | 16.02499 | 74.27297 | 39862 ft | 485 kts | 296° |
| 2026-05-07 00:38 | 16.05526 | 74.21031 | 39863 ft | 485 kts | 296° |
| 2026-05-07 00:39 | 16.08551 | 74.14764 | 39858 ft | 485 kts | 296° |
| 2026-05-07 00:39 | 16.11581 | 74.08482 | 39856 ft | 485 kts | 296° |
| 2026-05-07 00:40 | 16.14600 | 74.02216 | 39852 ft | 485 kts | 296° |
| 2026-05-07 00:40 | 16.17606 | 73.95973 | 39849 ft | 485 kts | 296° |
| 2026-05-07 00:41 | 16.20626 | 73.89695 | 39842 ft | 485 kts | 295° |
| 2026-05-07 00:41 | 16.23661 | 73.83415 | 39837 ft | 485 kts | 296° |
| 2026-05-07 00:42 | 16.26689 | 73.77136 | 39829 ft | 485 kts | 295° |
| 2026-05-07 00:42 | 16.29710 | 73.70869 | 39824 ft | 483 kts | 296° |
| 2026-05-07 00:43 | 16.32728 | 73.64604 | 39816 ft | 483 kts | 295° |
| 2026-05-07 00:43 | 16.35710 | 73.58403 | 39808 ft | 482 kts | 295° |
| 2026-05-07 00:44 | 16.38743 | 73.52178 | 39803 ft | 482 kts | 296° |
| 2026-05-07 00:44 | 16.41857 | 73.45988 | 39806 ft | 482 kts | 296° |
| 2026-05-07 00:45 | 16.44918 | 73.39770 | 39800 ft | 482 kts | 296° |
| 2026-05-07 00:45 | 16.48007 | 73.33565 | 39799 ft | 482 kts | 296° |
| 2026-05-07 00:46 | 16.51072 | 73.27360 | 39795 ft | 481 kts | 296° |
| 2026-05-07 00:46 | 16.54142 | 73.21162 | 39787 ft | 481 kts | 296° |
| 2026-05-07 00:47 | 16.57207 | 73.14960 | 39790 ft | 480 kts | 296° |
| 2026-05-07 00:47 | 16.60242 | 73.08800 | 39792 ft | 480 kts | 295° |
| 2026-05-07 00:48 | 16.63175 | 73.02558 | 39792 ft | 479 kts | 295° |
| 2026-05-07 00:48 | 16.66161 | 72.96323 | 39795 ft | 480 kts | 295° |
| 2026-05-07 00:49 | 16.69125 | 72.90071 | 39797 ft | 480 kts | 295° |
| 2026-05-07 00:49 | 16.72075 | 72.83866 | 39798 ft | 480 kts | 295° |
| 2026-05-07 00:50 | 16.75057 | 72.77581 | 39802 ft | 480 kts | 295° |
| 2026-05-07 00:50 | 16.78018 | 72.71335 | 39804 ft | 480 kts | 295° |
| 2026-05-07 00:51 | 16.80960 | 72.65123 | 39802 ft | 480 kts | 295° |
| 2026-05-07 00:51 | 16.83920 | 72.58867 | 39806 ft | 480 kts | 295° |
| 2026-05-07 00:52 | 16.86880 | 72.52605 | 39808 ft | 480 kts | 295° |
| 2026-05-07 00:52 | 16.89833 | 72.46352 | 39810 ft | 480 kts | 295° |
| 2026-05-07 00:53 | 16.92778 | 72.40112 | 39808 ft | 480 kts | 295° |
| 2026-05-07 00:53 | 16.95732 | 72.33844 | 39806 ft | 480 kts | 295° |
| 2026-05-07 00:54 | 16.98681 | 72.27581 | 39810 ft | 480 kts | 295° |
| 2026-05-07 00:54 | 17.01632 | 72.21310 | 39810 ft | 480 kts | 295° |
| 2026-05-07 00:55 | 17.04575 | 72.15046 | 39808 ft | 480 kts | 295° |
| 2026-05-07 00:55 | 17.07520 | 72.08776 | 39809 ft | 480 kts | 295° |
| 2026-05-07 00:56 | 17.10455 | 72.02549 | 39814 ft | 480 kts | 295° |
| 2026-05-07 00:56 | 17.13492 | 71.96321 | 39813 ft | 480 kts | 295° |
| 2026-05-07 00:57 | 17.16478 | 71.90078 | 39814 ft | 480 kts | 295° |
| 2026-05-07 00:57 | 17.19484 | 71.83846 | 39813 ft | 480 kts | 295° |
| 2026-05-07 00:58 | 17.22482 | 71.77598 | 39816 ft | 480 kts | 295° |
| 2026-05-07 00:58 | 17.25484 | 71.71346 | 39821 ft | 481 kts | 295° |
| 2026-05-07 00:59 | 17.29987 | 71.61951 | 39816 ft | 481 kts | 295° |
| 2026-05-07 01:00 | 17.32983 | 71.55696 | 39816 ft | 480 kts | 295° |
| 2026-05-07 01:00 | 17.35956 | 71.49480 | 39818 ft | 481 kts | 295° |
| 2026-05-07 01:01 | 17.38956 | 71.43201 | 39824 ft | 482 kts | 295° |
| 2026-05-07 01:01 | 17.41957 | 71.36912 | 39822 ft | 483 kts | 295° |
| 2026-05-07 01:02 | 17.44958 | 71.30620 | 39821 ft | 482 kts | 295° |
| 2026-05-07 01:02 | 17.47957 | 71.24324 | 39823 ft | 481 kts | 295° |
| 2026-05-07 01:03 | 17.50939 | 71.18058 | 39816 ft | 481 kts | 295° |
| 2026-05-07 01:03 | 17.53920 | 71.11787 | 39818 ft | 480 kts | 295° |
| 2026-05-07 01:04 | 17.56906 | 71.05499 | 39823 ft | 481 kts | 295° |
| 2026-05-07 01:04 | 17.59867 | 70.99258 | 39824 ft | 482 kts | 295° |
| 2026-05-07 01:05 | 17.62853 | 70.92960 | 39824 ft | 481 kts | 295° |
| 2026-05-07 01:05 | 17.65835 | 70.86661 | 39825 ft | 481 kts | 295° |
| 2026-05-07 01:06 | 17.68814 | 70.80364 | 39828 ft | 481 kts | 295° |
| 2026-05-07 01:06 | 17.71781 | 70.74085 | 39828 ft | 481 kts | 295° |
| 2026-05-07 01:07 | 17.74252 | 70.68853 | 39831 ft | 481 kts | 295° |
| 2026-05-07 01:07 | 17.77220 | 70.62560 | 39828 ft | 481 kts | 295° |
| 2026-05-07 01:08 | 17.79613 | 70.56047 | 39854 ft | 479 kts | 278° |
| 2026-05-07 01:08 | 17.80716 | 70.49149 | 39864 ft | 480 kts | 289° |
| 2026-05-07 01:09 | 17.83408 | 70.42716 | 39834 ft | 482 kts | 294° |
| 2026-05-07 01:09 | 17.86060 | 70.36286 | 39833 ft | 482 kts | 292° |
| 2026-05-07 01:10 | 17.88739 | 70.29835 | 39835 ft | 482 kts | 293° |
| 2026-05-07 01:10 | 17.91428 | 70.23366 | 39837 ft | 482 kts | 292° |
| 2026-05-07 01:11 | 17.94102 | 70.16894 | 39835 ft | 482 kts | 292° |
| 2026-05-07 01:11 | 17.96761 | 70.10486 | 39834 ft | 482 kts | 292° |
| 2026-05-07 01:12 | 17.99427 | 70.04026 | 39833 ft | 482 kts | 292° |
| 2026-05-07 01:12 | 18.02104 | 69.97551 | 39833 ft | 482 kts | 292° |
| 2026-05-07 01:13 | 18.04780 | 69.91060 | 39836 ft | 483 kts | 292° |
| 2026-05-07 01:13 | 18.07439 | 69.84608 | 39836 ft | 483 kts | 292° |
| 2026-05-07 01:14 | 18.10111 | 69.78114 | 39838 ft | 483 kts | 292° |
| 2026-05-07 01:14 | 18.12780 | 69.71623 | 39840 ft | 484 kts | 292° |
| 2026-05-07 01:15 | 18.15452 | 69.65116 | 39840 ft | 484 kts | 292° |
| 2026-05-07 01:15 | 18.18117 | 69.58619 | 39840 ft | 484 kts | 292° |
| 2026-05-07 01:16 | 18.20783 | 69.52114 | 39839 ft | 484 kts | 292° |
| 2026-05-07 01:16 | 18.23429 | 69.45647 | 39836 ft | 484 kts | 292° |
| 2026-05-07 01:17 | 18.26094 | 69.39128 | 39838 ft | 484 kts | 292° |
| 2026-05-07 01:17 | 18.28755 | 69.32614 | 39840 ft | 484 kts | 292° |
| 2026-05-07 01:18 | 18.31408 | 69.26109 | 39839 ft | 484 kts | 292° |
| 2026-05-07 01:18 | 18.34064 | 69.19588 | 39844 ft | 484 kts | 292° |
| 2026-05-07 01:19 | 18.36722 | 69.13057 | 39842 ft | 485 kts | 292° |
| 2026-05-07 01:19 | 18.39375 | 69.06530 | 39843 ft | 485 kts | 292° |
| 2026-05-07 01:20 | 18.42009 | 69.00044 | 39842 ft | 485 kts | 292° |
| 2026-05-07 01:20 | 18.44658 | 68.93513 | 39842 ft | 484 kts | 292° |
| 2026-05-07 01:21 | 18.47304 | 68.86980 | 39844 ft | 484 kts | 292° |
| 2026-05-07 01:21 | 18.49944 | 68.80456 | 39845 ft | 484 kts | 292° |
| 2026-05-07 01:22 | 18.52581 | 68.73931 | 39844 ft | 484 kts | 292° |
| 2026-05-07 01:22 | 18.55217 | 68.67402 | 39845 ft | 484 kts | 292° |
| 2026-05-07 01:23 | 18.57855 | 68.60858 | 39846 ft | 484 kts | 292° |
| 2026-05-07 01:23 | 18.60487 | 68.54324 | 39847 ft | 484 kts | 292° |
| 2026-05-07 01:24 | 18.63116 | 68.47789 | 39846 ft | 484 kts | 292° |
| 2026-05-07 01:24 | 18.65731 | 68.41281 | 39847 ft | 485 kts | 292° |
| 2026-05-07 01:25 | 18.68361 | 68.34728 | 39847 ft | 485 kts | 292° |
| 2026-05-07 01:25 | 18.70989 | 68.28172 | 39848 ft | 484 kts | 292° |
| 2026-05-07 01:26 | 18.73608 | 68.21632 | 39847 ft | 484 kts | 291° |
| 2026-05-07 01:26 | 18.76211 | 68.15123 | 39846 ft | 483 kts | 291° |
| 2026-05-07 01:27 | 18.78827 | 68.08574 | 39851 ft | 483 kts | 291° |
| 2026-05-07 01:27 | 18.81444 | 68.02015 | 39849 ft | 484 kts | 291° |
| 2026-05-07 01:28 | 18.84041 | 67.95499 | 39850 ft | 484 kts | 291° |
| 2026-05-07 01:28 | 18.86649 | 67.88946 | 39847 ft | 484 kts | 291° |
| 2026-05-07 01:29 | 18.89252 | 67.82399 | 39851 ft | 484 kts | 291° |
| 2026-05-07 01:29 | 18.91863 | 67.75823 | 39853 ft | 485 kts | 291° |
| 2026-05-07 01:30 | 18.94471 | 67.69248 | 39854 ft | 485 kts | 291° |
| 2026-05-07 01:30 | 18.97079 | 67.62665 | 39857 ft | 485 kts | 291° |
| 2026-05-07 01:31 | 18.99676 | 67.56101 | 39853 ft | 484 kts | 291° |
| 2026-05-07 01:31 | 19.02259 | 67.49565 | 39852 ft | 485 kts | 291° |
| 2026-05-07 01:32 | 19.04859 | 67.42977 | 39858 ft | 485 kts | 291° |
| 2026-05-07 01:32 | 19.07452 | 67.36402 | 39853 ft | 485 kts | 291° |
| 2026-05-07 01:33 | 19.10044 | 67.29818 | 39853 ft | 484 kts | 291° |
| 2026-05-07 01:33 | 19.12639 | 67.23221 | 39859 ft | 485 kts | 291° |
| 2026-05-07 01:34 | 19.15224 | 67.16639 | 39858 ft | 485 kts | 291° |
| 2026-05-07 01:34 | 19.17793 | 67.10091 | 39859 ft | 485 kts | 291° |
| 2026-05-07 01:35 | 19.20379 | 67.03491 | 39860 ft | 485 kts | 291° |
| 2026-05-07 01:35 | 19.22962 | 66.96893 | 39859 ft | 484 kts | 291° |
| 2026-05-07 01:36 | 19.25539 | 66.90298 | 39861 ft | 485 kts | 291° |
| 2026-05-07 01:36 | 19.28115 | 66.83700 | 39855 ft | 484 kts | 291° |
| 2026-05-07 01:37 | 19.30670 | 66.77147 | 39862 ft | 484 kts | 291° |
| 2026-05-07 01:37 | 19.33240 | 66.70548 | 39861 ft | 485 kts | 291° |
| 2026-05-07 01:38 | 19.35806 | 66.63953 | 39858 ft | 484 kts | 291° |
| 2026-05-07 01:38 | 19.38370 | 66.57352 | 39862 ft | 484 kts | 291° |
| 2026-05-07 01:39 | 19.40939 | 66.50731 | 39866 ft | 485 kts | 291° |
| 2026-05-07 01:39 | 19.43500 | 66.44122 | 39864 ft | 484 kts | 291° |
| 2026-05-07 01:40 | 19.46043 | 66.37550 | 39869 ft | 484 kts | 291° |
| 2026-05-07 01:40 | 19.48596 | 66.30946 | 39868 ft | 485 kts | 291° |
| 2026-05-07 01:41 | 19.51150 | 66.24331 | 39866 ft | 484 kts | 291° |
| 2026-05-07 01:41 | 19.53699 | 66.17720 | 39866 ft | 484 kts | 291° |
| 2026-05-07 01:42 | 19.56240 | 66.11122 | 39867 ft | 483 kts | 291° |
| 2026-05-07 01:42 | 19.58780 | 66.04516 | 39866 ft | 483 kts | 291° |
| 2026-05-07 01:43 | 19.61313 | 65.97923 | 39865 ft | 482 kts | 291° |
| 2026-05-07 01:43 | 19.63846 | 65.91320 | 39869 ft | 482 kts | 291° |
| 2026-05-07 01:44 | 19.66375 | 65.84720 | 39873 ft | 483 kts | 291° |
| 2026-05-07 01:44 | 19.68901 | 65.78120 | 39872 ft | 483 kts | 291° |
| 2026-05-07 01:45 | 19.71411 | 65.71551 | 39871 ft | 482 kts | 291° |
| 2026-05-07 01:45 | 19.73927 | 65.64960 | 39870 ft | 481 kts | 291° |
| 2026-05-07 01:46 | 19.76437 | 65.58375 | 39871 ft | 481 kts | 291° |
| 2026-05-07 01:46 | 19.78945 | 65.51787 | 39870 ft | 481 kts | 291° |
| 2026-05-07 01:47 | 19.81450 | 65.45201 | 39871 ft | 481 kts | 291° |
| 2026-05-07 01:47 | 19.83529 | 65.39725 | 39871 ft | 481 kts | 291° |
| 2026-05-07 01:48 | 19.86444 | 65.32041 | 39875 ft | 482 kts | 291° |
| 2026-05-07 01:48 | 19.88525 | 65.26548 | 39877 ft | 482 kts | 291° |
| 2026-05-07 01:49 | 19.91024 | 65.19944 | 39875 ft | 481 kts | 291° |
| 2026-05-07 01:49 | 19.93515 | 65.13350 | 39873 ft | 480 kts | 291° |
| 2026-05-07 01:50 | 19.96003 | 65.06758 | 39875 ft | 480 kts | 291° |
| 2026-05-07 01:50 | 19.98488 | 65.00164 | 39876 ft | 480 kts | 291° |
| 2026-05-07 01:51 | 20.00972 | 64.93566 | 39874 ft | 480 kts | 291° |
| 2026-05-07 01:51 | 20.03453 | 64.86967 | 39873 ft | 480 kts | 291° |
| 2026-05-07 01:52 | 20.05926 | 64.80379 | 39873 ft | 480 kts | 291° |
| 2026-05-07 01:52 | 20.08410 | 64.73755 | 39876 ft | 481 kts | 291° |
| 2026-05-07 01:53 | 20.10872 | 64.67181 | 39875 ft | 482 kts | 291° |
| 2026-05-07 01:53 | 20.13353 | 64.60545 | 39874 ft | 482 kts | 291° |
| 2026-05-07 01:54 | 20.15831 | 64.53911 | 39876 ft | 482 kts | 291° |
| 2026-05-07 01:54 | 20.18304 | 64.47281 | 39875 ft | 481 kts | 291° |
| 2026-05-07 01:55 | 20.20770 | 64.40660 | 39868 ft | 480 kts | 291° |
| 2026-05-07 01:55 | 20.23229 | 64.34051 | 39867 ft | 480 kts | 291° |
| 2026-05-07 01:56 | 20.25691 | 64.27424 | 39869 ft | 481 kts | 291° |
| 2026-05-07 01:56 | 20.28135 | 64.20836 | 39874 ft | 482 kts | 291° |
| 2026-05-07 01:57 | 20.30596 | 64.14195 | 39874 ft | 481 kts | 291° |
| 2026-05-07 01:57 | 20.33046 | 64.07573 | 39871 ft | 480 kts | 291° |
| 2026-05-07 01:58 | 20.35494 | 64.00949 | 39871 ft | 480 kts | 290° |
| 2026-05-07 01:58 | 20.37949 | 63.94297 | 39874 ft | 481 kts | 290° |
| 2026-05-07 01:59 | 20.40399 | 63.87649 | 39871 ft | 482 kts | 290° |
| 2026-05-07 01:59 | 20.42837 | 63.81025 | 39871 ft | 482 kts | 290° |
| 2026-05-07 02:00 | 20.45282 | 63.74373 | 39870 ft | 481 kts | 290° |
| 2026-05-07 02:00 | 20.47715 | 63.67744 | 39868 ft | 480 kts | 290° |
| 2026-05-07 02:01 | 20.50143 | 63.61121 | 39867 ft | 480 kts | 290° |
| 2026-05-07 02:01 | 20.52579 | 63.54466 | 39867 ft | 480 kts | 290° |
| 2026-05-07 02:02 | 20.55003 | 63.47834 | 39869 ft | 480 kts | 290° |
| 2026-05-07 02:02 | 20.57425 | 63.41201 | 39869 ft | 479 kts | 290° |
| 2026-05-07 02:03 | 20.59847 | 63.34558 | 39867 ft | 480 kts | 290° |
| 2026-05-07 02:03 | 20.62267 | 63.27911 | 39864 ft | 480 kts | 290° |
| 2026-05-07 02:04 | 20.64682 | 63.21267 | 39869 ft | 480 kts | 290° |
| 2026-05-07 02:04 | 20.67113 | 63.14572 | 39873 ft | 481 kts | 290° |
| 2026-05-07 02:05 | 20.69531 | 63.07905 | 39871 ft | 481 kts | 290° |
| 2026-05-07 02:05 | 20.71944 | 63.01238 | 39869 ft | 481 kts | 290° |
| 2026-05-07 02:06 | 20.74351 | 62.94582 | 39870 ft | 480 kts | 290° |
| 2026-05-07 02:06 | 20.76756 | 62.87921 | 39870 ft | 480 kts | 290° |
| 2026-05-07 02:07 | 20.79164 | 62.81244 | 39871 ft | 480 kts | 290° |
| 2026-05-07 02:07 | 20.82762 | 62.71250 | 39867 ft | 480 kts | 290° |
| 2026-05-07 02:08 | 20.85136 | 62.64643 | 39867 ft | 479 kts | 290° |
| 2026-05-07 02:08 | 20.87527 | 62.57978 | 39867 ft | 479 kts | 290° |
| 2026-05-07 02:09 | 20.89914 | 62.51318 | 39868 ft | 479 kts | 290° |
| 2026-05-07 02:09 | 20.92297 | 62.44658 | 39870 ft | 479 kts | 290° |
| 2026-05-07 02:10 | 20.94671 | 62.38013 | 39868 ft | 478 kts | 290° |
| 2026-05-07 02:10 | 20.97030 | 62.31404 | 39867 ft | 478 kts | 290° |
| 2026-05-07 02:11 | 20.99403 | 62.24742 | 39863 ft | 478 kts | 290° |
| 2026-05-07 02:11 | 21.01771 | 62.18087 | 39865 ft | 477 kts | 290° |
| 2026-05-07 02:12 | 21.04130 | 62.11451 | 39863 ft | 477 kts | 290° |
| 2026-05-07 02:12 | 21.06493 | 62.04790 | 39866 ft | 477 kts | 290° |
| 2026-05-07 02:13 | 21.08849 | 61.98140 | 39864 ft | 477 kts | 289° |
| 2026-05-07 02:13 | 21.11183 | 61.91544 | 39860 ft | 477 kts | 289° |
| 2026-05-07 02:14 | 21.13544 | 61.84863 | 39861 ft | 477 kts | 289° |
| 2026-05-07 02:14 | 21.15871 | 61.78265 | 39859 ft | 476 kts | 289° |
| 2026-05-07 02:15 | 21.18218 | 61.71605 | 39855 ft | 476 kts | 289° |
| 2026-05-07 02:15 | 21.20430 | 61.64926 | 39876 ft | 474 kts | 281° |
| 2026-05-07 02:16 | 21.21018 | 61.57902 | 39856 ft | 474 kts | 271° |
| 2026-05-07 02:16 | 21.21206 | 61.50850 | 39855 ft | 474 kts | 271° |
| 2026-05-07 02:17 | 21.21405 | 61.43788 | 39856 ft | 473 kts | 271° |
| 2026-05-07 02:17 | 21.21595 | 61.36726 | 39859 ft | 473 kts | 271° |
| 2026-05-07 02:18 | 21.21783 | 61.29708 | 39859 ft | 473 kts | 271° |
| 2026-05-07 02:18 | 21.21969 | 61.22643 | 39856 ft | 473 kts | 271° |
| 2026-05-07 02:19 | 21.22152 | 61.15592 | 39860 ft | 473 kts | 271° |
| 2026-05-07 02:19 | 21.22331 | 61.08544 | 39857 ft | 473 kts | 271° |
| 2026-05-07 02:20 | 21.22508 | 61.01498 | 39858 ft | 473 kts | 271° |
| 2026-05-07 02:20 | 21.22681 | 60.94485 | 39857 ft | 473 kts | 271° |
| 2026-05-07 02:21 | 21.22853 | 60.87387 | 39858 ft | 472 kts | 271° |
| 2026-05-07 02:21 | 21.23020 | 60.80377 | 39858 ft | 473 kts | 271° |
| 2026-05-07 02:22 | 21.23185 | 60.73338 | 39858 ft | 473 kts | 271° |
| 2026-05-07 02:22 | 21.23347 | 60.66283 | 39858 ft | 473 kts | 271° |
| 2026-05-07 02:23 | 21.23506 | 60.59232 | 39857 ft | 472 kts | 271° |
| 2026-05-07 02:23 | 21.23662 | 60.52194 | 39861 ft | 472 kts | 271° |
| 2026-05-07 02:24 | 21.23790 | 60.46319 | 39860 ft | 472 kts | 271° |
| 2026-05-07 02:24 | 21.23940 | 60.39312 | 39862 ft | 472 kts | 271° |
| 2026-05-07 02:25 | 21.24088 | 60.32277 | 39864 ft | 472 kts | 271° |
| 2026-05-07 02:25 | 21.24233 | 60.25238 | 39865 ft | 472 kts | 270° |
| 2026-05-07 02:26 | 21.24374 | 60.18209 | 39864 ft | 472 kts | 270° |
| 2026-05-07 02:26 | 21.24512 | 60.11155 | 39866 ft | 472 kts | 270° |
| 2026-05-07 02:27 | 21.24645 | 60.04115 | 39867 ft | 472 kts | 270° |
| 2026-05-07 02:27 | 21.24776 | 59.97074 | 39866 ft | 472 kts | 270° |
| 2026-05-07 02:28 | 21.24904 | 59.90031 | 39869 ft | 472 kts | 270° |
| 2026-05-07 02:28 | 21.25028 | 59.83038 | 39868 ft | 472 kts | 270° |
| 2026-05-07 02:29 | 21.25150 | 59.75984 | 39868 ft | 472 kts | 270° |
| 2026-05-07 02:29 | 21.25269 | 59.68942 | 39867 ft | 473 kts | 270° |
| 2026-05-07 02:30 | 21.25385 | 59.61895 | 39867 ft | 473 kts | 270° |
| 2026-05-07 02:30 | 21.25498 | 59.54849 | 39862 ft | 472 kts | 270° |
| 2026-05-07 02:31 | 21.25609 | 59.47780 | 39867 ft | 474 kts | 270° |
| 2026-05-07 02:31 | 21.25716 | 59.40708 | 39820 ft | 474 kts | 270° |
| 2026-05-07 02:32 | 21.25823 | 59.33637 | 39835 ft | 475 kts | 270° |
| 2026-05-07 02:32 | 21.25923 | 59.26546 | 39843 ft | 476 kts | 270° |
| 2026-05-07 02:33 | 21.26024 | 59.19498 | 39900 ft | 475 kts | 270° |
| 2026-05-07 02:33 | 21.26118 | 59.12398 | 39899 ft | 475 kts | 270° |
| 2026-05-07 02:34 | 21.26213 | 59.05305 | 39862 ft | 476 kts | 270° |
| 2026-05-07 02:34 | 21.26303 | 58.98202 | 39890 ft | 476 kts | 270° |
| 2026-05-07 02:35 | 21.26390 | 58.91096 | 39911 ft | 476 kts | 270° |
| 2026-05-07 02:35 | 21.26475 | 58.83981 | 39842 ft | 476 kts | 270° |
| 2026-05-07 02:36 | 21.26557 | 58.76865 | 39870 ft | 476 kts | 270° |
| 2026-05-07 02:36 | 21.26631 | 58.69773 | 39878 ft | 476 kts | 270° |
| 2026-05-07 02:37 | 21.26706 | 58.62643 | 39884 ft | 476 kts | 270° |
| 2026-05-07 02:37 | 21.26773 | 58.55550 | 39903 ft | 476 kts | 270° |
| 2026-05-07 02:38 | 21.26841 | 58.48440 | 39921 ft | 476 kts | 270° |
| 2026-05-07 02:38 | 21.26904 | 58.41384 | 39914 ft | 476 kts | 270° |
| 2026-05-07 02:39 | 21.26965 | 58.34268 | 39907 ft | 476 kts | 270° |
| 2026-05-07 02:39 | 21.27023 | 58.27116 | 39889 ft | 476 kts | 270° |
| 2026-05-07 02:40 | 21.27078 | 58.20070 | 39901 ft | 476 kts | 270° |
| 2026-05-07 02:40 | 21.27129 | 58.12950 | 39888 ft | 476 kts | 270° |
| 2026-05-07 02:41 | 21.27179 | 58.05836 | 39905 ft | 476 kts | 270° |
| 2026-05-07 02:41 | 21.27224 | 57.98771 | 39895 ft | 476 kts | 270° |
| 2026-05-07 02:42 | 21.27267 | 57.91659 | 39900 ft | 476 kts | 270° |
| 2026-05-07 02:42 | 21.27307 | 57.84576 | 39896 ft | 476 kts | 270° |
| 2026-05-07 02:43 | 21.27344 | 57.77467 | 39895 ft | 476 kts | 270° |
| 2026-05-07 02:43 | 21.27378 | 57.70367 | 39895 ft | 476 kts | 270° |
| 2026-05-07 02:44 | 21.27409 | 57.63303 | 39897 ft | 476 kts | 269° |
| 2026-05-07 02:44 | 21.27437 | 57.56196 | 39898 ft | 476 kts | 269° |
| 2026-05-07 02:45 | 21.27462 | 57.49091 | 39896 ft | 476 kts | 269° |
| 2026-05-07 02:45 | 21.27484 | 57.41980 | 39898 ft | 476 kts | 269° |
| 2026-05-07 02:46 | 21.27503 | 57.34916 | 39892 ft | 475 kts | 269° |
| 2026-05-07 02:46 | 21.27520 | 57.27832 | 39892 ft | 475 kts | 269° |
| 2026-05-07 02:47 | 21.27533 | 57.20680 | 39891 ft | 475 kts | 269° |
| 2026-05-07 02:47 | 21.27543 | 57.13590 | 39892 ft | 475 kts | 269° |
| 2026-05-07 02:48 | 21.27550 | 57.06535 | 39894 ft | 475 kts | 269° |
| 2026-05-07 02:48 | 21.27555 | 56.99456 | 39892 ft | 475 kts | 269° |
| 2026-05-07 02:49 | 21.27556 | 56.92361 | 39892 ft | 475 kts | 269° |
| 2026-05-07 02:49 | 21.27550 | 56.85274 | 39891 ft | 475 kts | 269° |
| 2026-05-07 02:50 | 21.27543 | 56.78167 | 39894 ft | 475 kts | 269° |
| 2026-05-07 02:50 | 21.27532 | 56.71078 | 39894 ft | 475 kts | 269° |
| 2026-05-07 02:51 | 21.27518 | 56.63990 | 39896 ft | 475 kts | 269° |
| 2026-05-07 02:51 | 21.27502 | 56.56956 | 39895 ft | 474 kts | 269° |
| 2026-05-07 02:52 | 21.27482 | 56.49872 | 39897 ft | 474 kts | 269° |
| 2026-05-07 02:52 | 21.27459 | 56.42795 | 39891 ft | 474 kts | 269° |
| 2026-05-07 02:53 | 21.27434 | 56.35717 | 39890 ft | 473 kts | 269° |
| 2026-05-07 02:53 | 21.27406 | 56.28712 | 39885 ft | 473 kts | 269° |
| 2026-05-07 02:54 | 21.27378 | 56.21652 | 39885 ft | 473 kts | 269° |
| 2026-05-07 02:54 | 21.27345 | 56.14589 | 39887 ft | 473 kts | 268° |
| 2026-05-07 02:55 | 21.27302 | 56.07526 | 39886 ft | 474 kts | 268° |
| 2026-05-07 02:55 | 21.27260 | 56.00447 | 39886 ft | 474 kts | 268° |
| 2026-05-07 02:56 | 21.27212 | 55.93391 | 39884 ft | 474 kts | 268° |
| 2026-05-07 02:56 | 21.27163 | 55.86314 | 39876 ft | 474 kts | 268° |
| 2026-05-07 02:57 | 21.27109 | 55.79235 | 39886 ft | 475 kts | 268° |
| 2026-05-07 02:57 | 21.27052 | 55.72150 | 39885 ft | 475 kts | 268° |
| 2026-05-07 02:58 | 21.26993 | 55.65068 | 39886 ft | 475 kts | 268° |
| 2026-05-07 02:58 | 21.26941 | 55.59179 | 39876 ft | 475 kts | 268° |
| 2026-05-07 02:59 | 21.26875 | 55.52047 | 39871 ft | 474 kts | 268° |
| 2026-05-07 02:59 | 21.26808 | 55.45015 | 39878 ft | 474 kts | 268° |
| 2026-05-07 03:00 | 21.26344 | 55.37987 | 39882 ft | 472 kts | 263° |
| 2026-05-07 03:00 | 21.25636 | 55.30972 | 39880 ft | 473 kts | 262° |
| 2026-05-07 03:01 | 21.24896 | 55.23974 | 39828 ft | 473 kts | 262° |
| 2026-05-07 03:01 | 21.24169 | 55.16975 | 39825 ft | 472 kts | 262° |
| 2026-05-07 03:02 | 21.23432 | 55.09981 | 39834 ft | 474 kts | 262° |
| 2026-05-07 03:02 | 21.22691 | 55.02947 | 39838 ft | 474 kts | 262° |
| 2026-05-07 03:03 | 21.21948 | 54.95927 | 39861 ft | 473 kts | 262° |
| 2026-05-07 03:03 | 21.21202 | 54.88913 | 39865 ft | 473 kts | 262° |
| 2026-05-07 03:04 | 21.20454 | 54.81901 | 39916 ft | 474 kts | 262° |
| 2026-05-07 03:04 | 21.19698 | 54.74861 | 39884 ft | 475 kts | 262° |
| 2026-05-07 03:05 | 21.18944 | 54.67836 | 39869 ft | 474 kts | 262° |
| 2026-05-07 03:05 | 21.18189 | 54.60859 | 39870 ft | 474 kts | 262° |
| 2026-05-07 03:06 | 21.17435 | 54.53902 | 39862 ft | 474 kts | 262° |
| 2026-05-07 03:06 | 21.16669 | 54.46867 | 39866 ft | 475 kts | 262° |
| 2026-05-07 03:07 | 21.15901 | 54.39838 | 39868 ft | 475 kts | 262° |
| 2026-05-07 03:07 | 21.15128 | 54.32785 | 39859 ft | 475 kts | 262° |
| 2026-05-07 03:08 | 21.14354 | 54.25761 | 39864 ft | 476 kts | 262° |
| 2026-05-07 03:08 | 21.13575 | 54.18716 | 39862 ft | 476 kts | 262° |
| 2026-05-07 03:09 | 21.12793 | 54.11669 | 39858 ft | 475 kts | 262° |
| 2026-05-07 03:09 | 21.12009 | 54.04634 | 39858 ft | 476 kts | 262° |
| 2026-05-07 03:10 | 21.11227 | 53.97640 | 39861 ft | 475 kts | 262° |
| 2026-05-07 03:10 | 21.10437 | 53.90602 | 39848 ft | 476 kts | 262° |
| 2026-05-07 03:11 | 21.09644 | 53.83562 | 39854 ft | 477 kts | 262° |
| 2026-05-07 03:11 | 21.08848 | 53.76521 | 39858 ft | 477 kts | 262° |
| 2026-05-07 03:12 | 21.08047 | 53.69469 | 39852 ft | 477 kts | 262° |
| 2026-05-07 03:12 | 21.07242 | 53.62404 | 39852 ft | 478 kts | 262° |
| 2026-05-07 03:13 | 21.06432 | 53.55327 | 39857 ft | 478 kts | 262° |
| 2026-05-07 03:13 | 21.05625 | 53.48297 | 39844 ft | 478 kts | 262° |
| 2026-05-07 03:14 | 21.04811 | 53.41233 | 39843 ft | 478 kts | 262° |
| 2026-05-07 03:15 | 21.03586 | 53.30650 | 39841 ft | 477 kts | 262° |
| 2026-05-07 03:15 | 21.02766 | 53.23596 | 39837 ft | 478 kts | 262° |
| 2026-05-07 03:16 | 21.01943 | 53.16543 | 39837 ft | 478 kts | 262° |
| 2026-05-07 03:16 | 21.01122 | 53.09519 | 39841 ft | 478 kts | 264° |
| 2026-05-07 03:16 | 21.01058 | 53.05971 | 39858 ft | 478 kts | 275° |
| 2026-05-07 03:17 | 21.01621 | 53.02455 | 39857 ft | 481 kts | 286° |
| 2026-05-07 03:17 | 21.04539 | 52.96024 | 39857 ft | 485 kts | 307° |
| 2026-05-07 03:18 | 21.09279 | 52.90889 | 39834 ft | 486 kts | 316° |
| 2026-05-07 03:18 | 21.14272 | 52.85994 | 39824 ft | 486 kts | 316° |
| 2026-05-07 03:19 | 21.19268 | 52.81077 | 39827 ft | 487 kts | 316° |
| 2026-05-07 03:19 | 21.24270 | 52.76152 | 39836 ft | 488 kts | 316° |
| 2026-05-07 03:20 | 21.29265 | 52.71232 | 39832 ft | 487 kts | 316° |
| 2026-05-07 03:20 | 21.34219 | 52.66344 | 39834 ft | 486 kts | 316° |
| 2026-05-07 03:21 | 21.39207 | 52.61421 | 39823 ft | 486 kts | 316° |
| 2026-05-07 03:21 | 21.44183 | 52.56503 | 39825 ft | 486 kts | 316° |
| 2026-05-07 03:22 | 21.49161 | 52.51579 | 39823 ft | 486 kts | 316° |
| 2026-05-07 03:22 | 21.54149 | 52.46640 | 39827 ft | 486 kts | 316° |
| 2026-05-07 03:23 | 21.59116 | 52.41716 | 39827 ft | 485 kts | 315° |
| 2026-05-07 03:23 | 21.64059 | 52.36812 | 39830 ft | 485 kts | 315° |
| 2026-05-07 03:24 | 21.69022 | 52.31884 | 39832 ft | 485 kts | 315° |
| 2026-05-07 03:24 | 21.73985 | 52.26950 | 39833 ft | 485 kts | 315° |
| 2026-05-07 03:25 | 21.78942 | 52.22018 | 39838 ft | 485 kts | 315° |
| 2026-05-07 03:25 | 21.83866 | 52.17114 | 39839 ft | 485 kts | 315° |
| 2026-05-07 03:26 | 21.88816 | 52.12179 | 39844 ft | 485 kts | 315° |
| 2026-05-07 03:26 | 21.93767 | 52.07238 | 39847 ft | 484 kts | 315° |
| 2026-05-07 03:27 | 21.98746 | 52.02264 | 39846 ft | 484 kts | 315° |
| 2026-05-07 03:27 | 22.03676 | 51.97334 | 39846 ft | 484 kts | 315° |
| 2026-05-07 03:28 | 22.08608 | 51.92397 | 39853 ft | 483 kts | 315° |
| 2026-05-07 03:28 | 22.13543 | 51.87453 | 39856 ft | 483 kts | 314° |
| 2026-05-07 03:29 | 22.18461 | 51.82520 | 39855 ft | 482 kts | 314° |
| 2026-05-07 03:29 | 22.23368 | 51.77593 | 39861 ft | 482 kts | 314° |
| 2026-05-07 03:30 | 22.28258 | 51.72679 | 39863 ft | 481 kts | 314° |
| 2026-05-07 03:30 | 22.33157 | 51.67750 | 39863 ft | 482 kts | 314° |
| 2026-05-07 03:31 | 22.38071 | 51.62802 | 39860 ft | 482 kts | 314° |
| 2026-05-07 03:31 | 22.42971 | 51.57863 | 39870 ft | 482 kts | 314° |
| 2026-05-07 03:32 | 22.47880 | 51.52910 | 39871 ft | 482 kts | 314° |
| 2026-05-07 03:32 | 22.52756 | 51.47984 | 39868 ft | 482 kts | 314° |
| 2026-05-07 03:33 | 22.57654 | 51.43031 | 39876 ft | 482 kts | 314° |
| 2026-05-07 03:33 | 22.62553 | 51.38073 | 39873 ft | 481 kts | 314° |
| 2026-05-07 03:34 | 22.67413 | 51.33149 | 39876 ft | 481 kts | 313° |
| 2026-05-07 03:34 | 22.72295 | 51.28197 | 39879 ft | 480 kts | 313° |
| 2026-05-07 03:35 | 22.77173 | 51.23245 | 39877 ft | 480 kts | 313° |
| 2026-05-07 03:35 | 22.81260 | 51.19092 | 39879 ft | 480 kts | 313° |
| 2026-05-07 03:36 | 22.86100 | 51.14169 | 39879 ft | 479 kts | 313° |
| 2026-05-07 03:36 | 22.90957 | 51.09224 | 39880 ft | 478 kts | 313° |
| 2026-05-07 03:37 | 22.96244 | 51.04824 | 39898 ft | 487 kts | 330° |
| 2026-05-07 03:37 | 23.02748 | 51.02575 | 39901 ft | 498 kts | 351° |
| 2026-05-07 03:38 | 23.09713 | 51.02998 | 39904 ft | 508 kts | 12° |
| 2026-05-07 03:38 | 23.16565 | 51.05050 | 39878 ft | 511 kts | 13° |
| 2026-05-07 03:39 | 23.23408 | 51.07171 | 39880 ft | 511 kts | 13° |
| 2026-05-07 03:39 | 23.30227 | 51.09248 | 39875 ft | 512 kts | 13° |
| 2026-05-07 03:40 | 23.37029 | 51.11345 | 39875 ft | 512 kts | 13° |
| 2026-05-07 03:40 | 23.43943 | 51.13466 | 39876 ft | 512 kts | 12° |
| 2026-05-07 03:41 | 23.50809 | 51.15581 | 39876 ft | 512 kts | 12° |
| 2026-05-07 03:41 | 23.57689 | 51.17699 | 39881 ft | 513 kts | 12° |
| 2026-05-07 03:42 | 23.64537 | 51.19811 | 39878 ft | 513 kts | 12° |
| 2026-05-07 03:42 | 23.71436 | 51.21940 | 39810 ft | 516 kts | 12° |
| 2026-05-07 03:42 | 23.74898 | 51.23009 | 39572 ft | 518 kts | 12° |
| 2026-05-07 03:43 | 23.78357 | 51.24080 | 39346 ft | 515 kts | 12° |
| 2026-05-07 03:43 | 23.81797 | 51.25145 | 39108 ft | 513 kts | 12° |
| 2026-05-07 03:43 | 23.85243 | 51.26211 | 38880 ft | 512 kts | 12° |
| 2026-05-07 03:43 | 23.88637 | 51.27260 | 38614 ft | 514 kts | 12° |
| 2026-05-07 03:44 | 23.92084 | 51.28328 | 38236 ft | 515 kts | 12° |
| 2026-05-07 03:44 | 23.95546 | 51.29403 | 37835 ft | 514 kts | 12° |
| 2026-05-07 03:44 | 23.98984 | 51.30470 | 37438 ft | 514 kts | 12° |
| 2026-05-07 03:44 | 24.02439 | 51.31540 | 37067 ft | 515 kts | 12° |
| 2026-05-07 03:45 | 24.05887 | 51.32610 | 36703 ft | 516 kts | 12° |
| 2026-05-07 03:45 | 24.09305 | 51.33673 | 36345 ft | 517 kts | 12° |
| 2026-05-07 03:45 | 24.12776 | 51.34753 | 35952 ft | 514 kts | 12° |
| 2026-05-07 03:45 | 24.16207 | 51.35821 | 35354 ft | 511 kts | 12° |
| 2026-05-07 03:46 | 24.19623 | 51.36883 | 34777 ft | 508 kts | 12° |
| 2026-05-07 03:46 | 24.23013 | 51.37938 | 34214 ft | 506 kts | 12° |
| 2026-05-07 03:46 | 24.26397 | 51.38993 | 33629 ft | 503 kts | 12° |
| 2026-05-07 03:46 | 24.29756 | 51.40040 | 32991 ft | 500 kts | 12° |
| 2026-05-07 03:47 | 24.33096 | 51.41082 | 32364 ft | 498 kts | 12° |
| 2026-05-07 03:47 | 24.36412 | 51.42116 | 31710 ft | 496 kts | 12° |
| 2026-05-07 03:47 | 24.39730 | 51.43151 | 31005 ft | 496 kts | 12° |
| 2026-05-07 03:47 | 24.43068 | 51.44194 | 30318 ft | 495 kts | 12° |
| 2026-05-07 03:48 | 24.46389 | 51.45233 | 29582 ft | 494 kts | 13° |
| 2026-05-07 03:48 | 24.49651 | 51.46253 | 28812 ft | 493 kts | 13° |
| 2026-05-07 03:48 | 24.52945 | 51.47284 | 28048 ft | 490 kts | 13° |
| 2026-05-07 03:48 | 24.56220 | 51.48309 | 27308 ft | 487 kts | 13° |
| 2026-05-07 03:49 | 24.59468 | 51.49327 | 26591 ft | 484 kts | 13° |
| 2026-05-07 03:49 | 24.62714 | 51.50344 | 25880 ft | 480 kts | 14° |
| 2026-05-07 03:49 | 24.65910 | 51.51346 | 25185 ft | 476 kts | 14° |
| 2026-05-07 03:49 | 24.69061 | 51.52429 | 24527 ft | 472 kts | 21° |
| 2026-05-07 03:50 | 24.71988 | 51.53858 | 23889 ft | 467 kts | 22° |
| 2026-05-07 03:50 | 24.74942 | 51.55306 | 23202 ft | 462 kts | 22° |
| 2026-05-07 03:50 | 24.77910 | 51.56592 | 22448 ft | 455 kts | 14° |
| 2026-05-07 03:50 | 24.80981 | 51.57199 | 21737 ft | 447 kts | 2° |
| 2026-05-07 03:51 | 24.84054 | 51.57124 | 21029 ft | 440 kts | 351° |
| 2026-05-07 03:51 | 24.87018 | 51.56393 | 20342 ft | 434 kts | 340° |
| 2026-05-07 03:51 | 24.89718 | 51.55083 | 19646 ft | 415 kts | 329° |
| 2026-05-07 03:51 | 24.92030 | 51.53334 | 18967 ft | 392 kts | 319° |
| 2026-05-07 03:52 | 24.94071 | 51.51443 | 18276 ft | 374 kts | 320° |
| 2026-05-07 03:52 | 24.96198 | 51.49910 | 17549 ft | 359 kts | 337° |
| 2026-05-07 03:52 | 24.98474 | 51.48895 | 16761 ft | 347 kts | 338° |
| 2026-05-07 03:52 | 25.00680 | 51.47915 | 16004 ft | 338 kts | 338° |
| 2026-05-07 03:53 | 25.02840 | 51.46969 | 15282 ft | 330 kts | 339° |
| 2026-05-07 03:53 | 25.04925 | 51.46053 | 14572 ft | 324 kts | 339° |
| 2026-05-07 03:53 | 25.06998 | 51.45136 | 13874 ft | 318 kts | 339° |
| 2026-05-07 03:53 | 25.09032 | 51.44238 | 13112 ft | 312 kts | 339° |
| 2026-05-07 03:54 | 25.11037 | 51.43353 | 12372 ft | 307 kts | 339° |
| 2026-05-07 03:54 | 25.13007 | 51.42532 | 11635 ft | 299 kts | 348° |
| 2026-05-07 03:54 | 25.15037 | 51.42619 | 10965 ft | 289 kts | 23° |
| 2026-05-07 03:54 | 25.16757 | 51.43772 | 10313 ft | 292 kts | 43° |
| 2026-05-07 03:55 | 25.17994 | 51.45567 | 9666 ft | 298 kts | 65° |
| 2026-05-07 03:55 | 25.18520 | 51.47773 | 8982 ft | 302 kts | 88° |
| 2026-05-07 03:55 | 25.18209 | 51.50069 | 8311 ft | 306 kts | 111° |
| 2026-05-07 03:55 | 25.17074 | 51.52035 | 7873 ft | 303 kts | 134° |
| 2026-05-07 03:56 | 25.15466 | 51.53251 | 7476 ft | 300 kts | 157° |
| 2026-05-07 03:56 | 25.13354 | 51.53700 | 7029 ft | 296 kts | 180° |
| 2026-05-07 03:56 | 25.11303 | 51.53617 | 6584 ft | 292 kts | 180° |
| 2026-05-07 03:56 | 25.09376 | 51.54008 | 6141 ft | 285 kts | 156° |
| 2026-05-07 03:57 | 25.07545 | 51.54825 | 5722 ft | 280 kts | 158° |
| 2026-05-07 03:57 | 25.05731 | 51.55578 | 5357 ft | 274 kts | 157° |
| 2026-05-07 03:57 | 25.03968 | 51.56350 | 5005 ft | 269 kts | 156° |
| 2026-05-07 03:57 | 25.02346 | 51.57076 | 4672 ft | 265 kts | 156° |
| 2026-05-07 03:58 | 25.00779 | 51.58062 | 4312 ft | 257 kts | 133° |
| 2026-05-07 03:58 | 24.99805 | 51.59672 | 3945 ft | 252 kts | 106° |
| 2026-05-07 03:58 | 24.99598 | 51.61558 | 3600 ft | 246 kts | 80° |
| 2026-05-07 03:58 | 25.00088 | 51.63328 | 3260 ft | 241 kts | 66° |
| 2026-05-07 03:59 | 25.00705 | 51.65037 | 3021 ft | 235 kts | 65° |
| 2026-05-07 03:59 | 25.01320 | 51.66689 | 3022 ft | 236 kts | 65° |
| 2026-05-07 03:59 | 25.02185 | 51.68194 | 3012 ft | 235 kts | 36° |
| 2026-05-07 03:59 | 25.03695 | 51.68850 | 3021 ft | 236 kts | 10° |
| 2026-05-07 04:00 | 25.05315 | 51.68976 | 3016 ft | 227 kts | 360° |
| 2026-05-07 04:00 | 25.06832 | 51.68786 | 3012 ft | 212 kts | 349° |
| 2026-05-07 04:00 | 25.08184 | 51.68292 | 3017 ft | 207 kts | 341° |
| 2026-05-07 04:00 | 25.09503 | 51.67670 | 3015 ft | 205 kts | 340° |
| 2026-05-07 04:01 | 25.10815 | 51.67068 | 2951 ft | 207 kts | 341° |
| 2026-05-07 04:01 | 25.12146 | 51.66482 | 2716 ft | 200 kts | 341° |
| 2026-05-07 04:01 | 25.13412 | 51.65924 | 2457 ft | 195 kts | 341° |
| 2026-05-07 04:01 | 25.14669 | 51.65367 | 2210 ft | 197 kts | 342° |
| 2026-05-07 04:02 | 25.15938 | 51.64806 | 1951 ft | 190 kts | 342° |
| 2026-05-07 04:02 | 25.17114 | 51.64284 | 1716 ft | 174 kts | 342° |
| 2026-05-07 04:02 | 25.18196 | 51.63805 | 1491 ft | 162 kts | 342° |
| 2026-05-07 04:02 | 25.19205 | 51.63356 | 1310 ft | 152 kts | 342° |
| 2026-05-07 04:03 | 25.20192 | 51.62926 | 1101 ft | 152 kts | 342° |
| 2026-05-07 04:03 | 25.21176 | 51.62489 | 916 ft | 150 kts | 341° |
| 2026-05-07 04:03 | 25.22113 | 51.62077 | 729 ft | 142 kts | 340° |
| 2026-05-07 04:03 | 25.22999 | 51.61682 | 545 ft | 138 kts | 340° |
| 2026-05-07 04:04 | 25.23894 | 51.61284 | 369 ft | 136 kts | 340° |
| 2026-05-07 04:04 | 25.24773 | 51.60895 | 208 ft | 136 kts | 340° |
| 2026-05-07 04:04 | 25.25665 | 51.60492 | 46 ft | 139 kts | 339° |
| 2026-05-07 04:04 | 25.26529 | 51.60106 | 23 ft | 125 kts | 340° |
| 2026-05-07 04:05 | 25.27180 | 51.59833 | 25 ft | 67 kts | 345° |
| 2026-05-07 04:05 | 25.27420 | 51.59858 | 28 ft | 20 kts | 41° |
| 2026-05-07 04:05 | 25.27408 | 51.59928 | 30 ft | 9 kts | 145° |
| 2026-05-07 04:05 | 25.27344 | 51.59958 | 28 ft | 11 kts | 159° |
| 2026-05-07 04:06 | 25.27262 | 51.59993 | 30 ft | 14 kts | 158° |
| 2026-05-07 04:06 | 25.27162 | 51.60037 | 28 ft | 17 kts | 158° |
| 2026-05-07 04:06 | 25.27048 | 51.60089 | 28 ft | 18 kts | 158° |
| 2026-05-07 04:06 | 25.26925 | 51.60145 | 28 ft | 20 kts | 158° |
| 2026-05-07 04:07 | 25.26794 | 51.60203 | 28 ft | 21 kts | 159° |
| 2026-05-07 04:07 | 25.26660 | 51.60260 | 30 ft | 21 kts | 159° |
| 2026-05-07 04:07 | 25.26523 | 51.60325 | 30 ft | 20 kts | 141° |
| 2026-05-07 04:07 | 25.26528 | 51.60448 | 27 ft | 17 kts | 69° |
| 2026-05-07 04:08 | 25.26572 | 51.60567 | 27 ft | 17 kts | 67° |
| 2026-05-07 04:08 | 25.26579 | 51.60677 | 27 ft | 14 kts | 114° |
| 2026-05-07 04:08 | 25.26541 | 51.60770 | 27 ft | 12 kts | 114° |
| 2026-05-07 04:08 | 25.26529 | 51.60834 | 28 ft | 6 kts | 69° |
| 2026-05-07 04:09 | 25.26546 | 51.60852 | 27 ft | 5 kts | 33° |
| 2026-05-07 04:09 | 25.26580 | 51.60872 | 28 ft | 6 kts | 27° |
| 2026-05-07 04:09 | 25.26611 | 51.60888 | 28 ft | 4 kts | 23° |
| 2026-05-07 04:09 | 25.26628 | 51.60896 | 28 ft | 2 kts | 23° |
| 2026-05-07 04:10 | 25.26648 | 51.60905 | 28 ft | 5 kts | 22° |
| 2026-05-07 04:10 | 25.26680 | 51.60919 | 28 ft | 4 kts | 20° |
| 2026-05-07 04:10 | 25.26687 | 51.60922 | 28 ft | 0 kts | 21° |